Cosmos — SV3378 — position and weather

sailwx.info

Track history (hours):
 
Tides and Currents Weather Stations Pressure Air Temp Water Temp Dewpoint Dewpoint Depression Visibility Wind Speed Wind Dir Waves Ship Positions

Cosmos

Last reported at 2018-Apr-23 13:30 UTC. Time now 2018-Apr-23 13:42 UTC.
Position N 37°45' E 023°26'.

Length 68 m; draft 3 m.

Type: Passenger vessel. MMSI: 237013400.

Date/timePositionNaut miles runAvg speedWind from/ knotsBaromVisibWave heightAir tempDewpointWater temp
2018-Apr-23 13:30N 37°45' E 023°26'0 0.4
2018-Apr-23 13:00N 37°45' E 023°25'713.3
2018-Apr-23 12:30N 37°38' E 023°25'713.8
2018-Apr-23 12:01N 37°31' E 023°25'2 3.7
2018-Apr-23 11:30N 37°30' E 023°27'0 0.0
2018-Apr-23 10:59N 37°30' E 023°27'5 9.9
2018-Apr-23 10:31N 37°27' E 023°32'6 2.4
2018-Apr-23 07:56N 37°22' E 023°28'614.1
2018-Apr-23 07:30N 37°26' E 023°33'714.2
2018-Apr-23 07:00N 37°33' E 023°35'714.1
2018-Apr-23 06:30N 37°40' E 023°37'714.2
2018-Apr-23 06:00N 37°47' E 023°39'714.1
2018-Apr-23 05:30N 37°54' E 023°40'2 4.8
2018-Apr-23 05:00N 37°56' E 023°41'0 0.0
2018-Apr-23 04:30N 37°56' E 023°41'0 0.0
2018-Apr-23 04:00N 37°56' E 023°41'0 0.0
2018-Apr-23 03:30N 37°56' E 023°41'0 0.0
2018-Apr-23 03:01N 37°56' E 023°41'0 0.0
2018-Apr-23 02:31N 37°56' E 023°41'0 0.0
2018-Apr-23 02:01N 37°56' E 023°41'0 0.0
2018-Apr-23 01:30N 37°56' E 023°41'0 0.0
2018-Apr-23 01:01N 37°56' E 023°41'0 0.0
2018-Apr-23 00:31N 37°56' E 023°41'0 0.0
2018-Apr-23 00:01N 37°56' E 023°41'0 0.0
2018-Apr-22 23:30N 37°56' E 023°41'0 0.0
2018-Apr-22 23:01N 37°56' E 023°41'0 0.0
2018-Apr-22 22:31N 37°56' E 023°41'0 0.0
2018-Apr-22 22:01N 37°56' E 023°41'0 0.0
2018-Apr-22 21:30N 37°56' E 023°41'0 0.0
2018-Apr-22 21:01N 37°56' E 023°41'0 0.0
2018-Apr-22 20:31N 37°56' E 023°41'0 0.0
2018-Apr-22 20:01N 37°56' E 023°41'0 0.0
2018-Apr-22 19:31N 37°56' E 023°41'0 0.0
2018-Apr-22 19:01N 37°56' E 023°41'0 0.0
2018-Apr-22 18:31N 37°56' E 023°41'0 0.0
2018-Apr-22 18:01N 37°56' E 023°41'0 0.0
2018-Apr-22 17:30N 37°56' E 023°41'0 0.0
2018-Apr-22 17:01N 37°56' E 023°41'0 0.0
2018-Apr-22 16:31N 37°56' E 023°41'2 4.2
2018-Apr-22 16:01N 37°55' E 023°39'714.0
2018-Apr-22 15:31N 37°51' E 023°32'714.0
2018-Apr-22 15:00N 37°46' E 023°25'2 3.2
2018-Apr-22 14:30N 37°45' E 023°26'0 0.0
2018-Apr-22 14:00N 37°45' E 023°26'0 0.0
2018-Apr-22 13:30N 37°45' E 023°26'0 0.0
2018-Apr-22 13:00N 37°45' E 023°26'3 6.6
2018-Apr-22 12:31N 37°41' E 023°25'714.2
2018-Apr-22 11:59N 37°34' E 023°25'4 3.4
2018-Apr-22 10:43N 37°30' E 023°27'1 5.5
2018-Apr-22 10:30N 37°30' E 023°28'710.9
2018-Apr-22 09:52N 37°23' E 023°30'2 0.7
2018-Apr-22 07:32N 37°22' E 023°28'013.6
2018-Apr-22 07:30N 37°22' E 023°29'714.1
2018-Apr-22 07:00N 37°28' E 023°34'714.5
2018-Apr-22 06:30N 37°35' E 023°35'714.2
2018-Apr-22 06:00N 37°42' E 023°36'714.0
2018-Apr-22 05:31N 37°49' E 023°38'713.4
2018-Apr-22 05:00N 37°55' E 023°40'1 2.7
2018-Apr-22 04:30N 37°56' E 023°41'0 0.0
2018-Apr-22 04:00N 37°56' E 023°41'0 0.0
2018-Apr-22 03:30N 37°56' E 023°41'0 0.0
2018-Apr-22 03:01N 37°56' E 023°41'0 0.0
2018-Apr-22 02:30N 37°56' E 023°41'0 0.0
2018-Apr-22 02:00N 37°56' E 023°41'0 0.0
2018-Apr-22 01:30N 37°56' E 023°41'0 0.0
2018-Apr-22 01:00N 37°56' E 023°41'0 0.0
2018-Apr-22 00:30N 37°56' E 023°41'0 0.0
2018-Apr-22 00:00N 37°56' E 023°41'0 0.0
2018-Apr-21 23:30N 37°56' E 023°41'0 0.0
2018-Apr-21 23:00N 37°56' E 023°41'0 0.0
2018-Apr-21 22:30N 37°56' E 023°41'0 0.0
2018-Apr-21 22:00N 37°56' E 023°41'0 0.0
2018-Apr-21 21:30N 37°56' E 023°41'0 0.0
2018-Apr-21 21:00N 37°56' E 023°41'0 0.0
2018-Apr-21 20:30N 37°56' E 023°41'0 0.0
2018-Apr-21 20:00N 37°56' E 023°41'0 0.0
2018-Apr-21 19:30N 37°56' E 023°41'0 0.0
2018-Apr-21 19:00N 37°56' E 023°41'0 0.0
2018-Apr-21 18:30N 37°56' E 023°41'0 0.0
2018-Apr-21 18:00N 37°56' E 023°41'0 0.0
2018-Apr-21 17:30N 37°56' E 023°41'0 0.0
2018-Apr-21 17:00N 37°56' E 023°41'611.0
2018-Apr-21 16:30N 37°53' E 023°35'714.1
2018-Apr-21 16:00N 37°48' E 023°29'4 8.9
2018-Apr-21 15:30N 37°45' E 023°26'0 0.0
2018-Apr-21 15:00N 37°45' E 023°26'0 0.0
2018-Apr-21 14:30N 37°45' E 023°26'0 0.0
2018-Apr-21 14:00N 37°45' E 023°26'3 5.1
2018-Apr-21 13:30N 37°42' E 023°25'714.2
2018-Apr-21 13:00N 37°35' E 023°25'5 9.9
2018-Apr-21 12:28N 37°30' E 023°27'0 0.0
2018-Apr-21 12:00N 37°30' E 023°27'1 2.5
2018-Apr-21 11:30N 37°30' E 023°29'710.6
2018-Apr-21 10:49N 37°22' E 023°29'1 0.5
2018-Apr-21 08:07N 37°21' E 023°28'0 2.3
2018-Apr-21 07:55N 37°22' E 023°28'714.8
2018-Apr-21 07:28N 37°27' E 023°33'714.8
2018-Apr-21 07:00N 37°33' E 023°35'714.4
2018-Apr-21 06:30N 37°40' E 023°37'714.3
2018-Apr-21 06:00N 37°47' E 023°39'714.3
2018-Apr-21 05:30N 37°55' E 023°40'2 3.5
2018-Apr-21 05:00N 37°56' E 023°41'0 0.0
2018-Apr-21 04:30N 37°56' E 023°41'0 0.0
2018-Apr-21 04:00N 37°56' E 023°41'0 0.0
2018-Apr-21 03:30N 37°56' E 023°41'0 0.0
2018-Apr-21 03:00N 37°56' E 023°41'0 0.0
2018-Apr-21 02:29N 37°56' E 023°41'0 0.0
2018-Apr-21 02:00N 37°56' E 023°41'0 0.0
2018-Apr-21 01:30N 37°56' E 023°41'0 0.0
2018-Apr-21 01:00N 37°56' E 023°41'0 0.0
2018-Apr-21 00:30N 37°56' E 023°41'0 0.0
2018-Apr-20 23:59N 37°56' E 023°41'0 0.0
2018-Apr-20 23:30N 37°56' E 023°41'0 0.0
2018-Apr-20 23:00N 37°56' E 023°41'0 0.0
2018-Apr-20 22:30N 37°56' E 023°41'0 0.0
2018-Apr-20 22:00N 37°56' E 023°41'0 0.0
2018-Apr-20 21:30N 37°56' E 023°41'0 0.0
2018-Apr-20 21:00N 37°56' E 023°41'0 0.0
2018-Apr-20 20:30N 37°56' E 023°41'0 0.0
2018-Apr-20 20:00N 37°56' E 023°41'0 0.0
2018-Apr-20 19:30N 37°56' E 023°41'0 0.0
2018-Apr-20 19:00N 37°56' E 023°41'0 0.0
2018-Apr-20 18:30N 37°56' E 023°41'0 0.0
2018-Apr-20 18:00N 37°56' E 023°41'0 0.0
2018-Apr-20 17:30N 37°56' E 023°41'0 0.0
2018-Apr-20 17:00N 37°56' E 023°41'2 3.8
2018-Apr-20 16:30N 37°55' E 023°39'713.8
2018-Apr-20 16:00N 37°51' E 023°32'713.8
2018-Apr-20 15:30N 37°47' E 023°25'2 3.7
2018-Apr-20 15:00N 37°45' E 023°26'0 0.0
2018-Apr-20 14:30N 37°45' E 023°26'0 0.0
2018-Apr-20 14:00N 37°45' E 023°26'0 0.1
2018-Apr-20 13:30N 37°45' E 023°25'1 1.5
2018-Apr-20 13:00N 37°44' E 023°25'713.8
2018-Apr-20 12:31N 37°37' E 023°25'713.1
2018-Apr-20 11:58N 37°30' E 023°27'0 0.2
2018-Apr-20 11:00N 37°30' E 023°27'510.0
2018-Apr-20 10:30N 37°27' E 023°32'6 2.3
2018-Apr-20 07:56N 37°22' E 023°28'614.3
2018-Apr-20 07:29N 37°27' E 023°33'714.6
2018-Apr-20 07:00N 37°33' E 023°35'714.4
2018-Apr-20 06:30N 37°40' E 023°37'714.3
2018-Apr-20 06:00N 37°47' E 023°38'713.7
2018-Apr-20 05:30N 37°54' E 023°40'2 4.5
2018-Apr-20 05:00N 37°56' E 023°41'0 0.0
2018-Apr-20 04:30N 37°56' E 023°41'0 0.0
2018-Apr-20 04:00N 37°56' E 023°41'0 0.0
2018-Apr-20 03:30N 37°56' E 023°41'0 0.0
2018-Apr-20 03:01N 37°56' E 023°41'0 0.0
2018-Apr-20 02:30N 37°56' E 023°41'0 0.0
2018-Apr-20 02:01N 37°56' E 023°41'0 0.0
2018-Apr-20 01:30N 37°56' E 023°41'0 0.0
2018-Apr-20 01:01N 37°56' E 023°41'0 0.0
2018-Apr-20 00:31N 37°56' E 023°41'0 0.0
2018-Apr-20 00:01N 37°56' E 023°41'0 0.0
2018-Apr-19 23:30N 37°56' E 023°41'0 0.0
2018-Apr-19 23:00N 37°56' E 023°41'0 0.0
2018-Apr-19 22:30N 37°56' E 023°41'0 0.0
2018-Apr-19 22:00N 37°56' E 023°41'0 0.0
2018-Apr-19 21:30N 37°56' E 023°41'0 0.0
2018-Apr-19 21:00N 37°56' E 023°41'0 0.0
2018-Apr-19 20:30N 37°56' E 023°41'0 0.0
2018-Apr-19 20:00N 37°56' E 023°41'0 0.0
2018-Apr-19 19:30N 37°56' E 023°41'0 0.0
2018-Apr-19 19:00N 37°56' E 023°41'0 0.0
2018-Apr-19 18:31N 37°56' E 023°41'0 0.0
2018-Apr-19 18:00N 37°56' E 023°41'0 0.0
2018-Apr-19 17:31N 37°56' E 023°41'0 0.0
2018-Apr-19 17:01N 37°56' E 023°41'0 0.0
2018-Apr-19 16:31N 37°56' E 023°41'0 0.0
2018-Apr-19 16:00N 37°56' E 023°41'0 0.0
2018-Apr-19 15:30N 37°56' E 023°41'0 0.0
2018-Apr-19 15:00N 37°56' E 023°41'0 0.0
2018-Apr-19 14:30N 37°56' E 023°41'0 0.0
2018-Apr-19 14:00N 37°56' E 023°41'0 0.0
2018-Apr-19 13:30N 37°56' E 023°41'0 0.0
2018-Apr-19 13:00N 37°56' E 023°41'0 0.0
2018-Apr-19 12:30N 37°56' E 023°41'0 0.0
2018-Apr-19 12:00N 37°56' E 023°41'0 0.0
2018-Apr-19 11:30N 37°56' E 023°41'0 0.0
2018-Apr-19 11:00N 37°56' E 023°41'0 0.0
2018-Apr-19 10:30N 37°56' E 023°41'0 0.0
2018-Apr-19 10:01N 37°56' E 023°41'0 0.0
2018-Apr-19 09:30N 37°56' E 023°41'0 0.0
2018-Apr-19 09:01N 37°56' E 023°41'0 0.0
2018-Apr-19 08:30N 37°56' E 023°41'0 0.0
2018-Apr-19 08:01N 37°56' E 023°41'0 0.0
2018-Apr-19 07:30N 37°56' E 023°41'0 0.0
2018-Apr-19 07:00N 37°56' E 023°41'0 0.0
2018-Apr-19 06:30N 37°56' E 023°41'0 0.0
2018-Apr-19 06:00N 37°56' E 023°41'0 0.0
2018-Apr-19 05:31N 37°56' E 023°41'0 0.0
2018-Apr-19 05:00N 37°56' E 023°41'0 0.0
2018-Apr-19 04:30N 37°56' E 023°41'0 0.0
2018-Apr-19 04:01N 37°56' E 023°41'0 0.0
2018-Apr-19 03:30N 37°56' E 023°41'0 0.0
2018-Apr-19 03:00N 37°56' E 023°41'0 0.0
2018-Apr-19 02:30N 37°56' E 023°41'0 0.0
2018-Apr-19 02:01N 37°56' E 023°41'0 0.0
2018-Apr-19 01:30N 37°56' E 023°41'0 0.0
2018-Apr-19 01:00N 37°56' E 023°41'0 0.0
2018-Apr-19 00:30N 37°56' E 023°41'0 0.0
2018-Apr-19 00:00N 37°56' E 023°41'0 0.0
2018-Apr-18 23:31N 37°56' E 023°41'0 0.0
2018-Apr-18 23:00N 37°56' E 023°41'0 0.0
2018-Apr-18 22:30N 37°56' E 023°41'0 0.0
2018-Apr-18 22:01N 37°56' E 023°41'0 0.0
2018-Apr-18 21:30N 37°56' E 023°41'0 0.0
2018-Apr-18 21:01N 37°56' E 023°41'0 0.0
2018-Apr-18 20:31N 37°56' E 023°41'0 0.0
2018-Apr-18 20:00N 37°56' E 023°41'0 0.0
2018-Apr-18 19:30N 37°56' E 023°41'0 0.0
2018-Apr-18 19:00N 37°56' E 023°41'0 0.0
2018-Apr-18 18:30N 37°56' E 023°41'0 0.0
2018-Apr-18 18:00N 37°56' E 023°41'0 0.0
2018-Apr-18 17:31N 37°56' E 023°41'0 0.0
2018-Apr-18 17:00N 37°56' E 023°41'0 0.0
2018-Apr-18 16:31N 37°56' E 023°41'0 0.0
2018-Apr-18 16:01N 37°56' E 023°41'0 0.0
2018-Apr-18 15:30N 37°56' E 023°41'0 0.0
2018-Apr-18 15:00N 37°56' E 023°41'0 0.0
2018-Apr-18 14:31N 37°56' E 023°41'0 0.0
2018-Apr-18 14:00N 37°56' E 023°41'0 0.0
2018-Apr-18 13:30N 37°56' E 023°41'0 0.0
2018-Apr-18 13:00N 37°56' E 023°41'0 0.0
2018-Apr-18 12:30N 37°56' E 023°41'0 0.0
2018-Apr-18 12:00N 37°56' E 023°41'0 0.0
2018-Apr-18 11:30N 37°56' E 023°41'0 0.0
2018-Apr-18 10:59N 37°56' E 023°41'0 0.0
2018-Apr-18 10:31N 37°56' E 023°41'0 0.0
2018-Apr-18 10:00N 37°56' E 023°41'0 0.0
2018-Apr-18 09:30N 37°56' E 023°41'0 0.0
2018-Apr-18 09:01N 37°56' E 023°41'0 0.0
2018-Apr-18 08:30N 37°56' E 023°41'0 0.0
2018-Apr-18 08:00N 37°56' E 023°41'0 0.0
2018-Apr-18 07:30N 37°56' E 023°41'0 0.0
2018-Apr-18 07:01N 37°56' E 023°41'0 0.0
2018-Apr-18 06:30N 37°56' E 023°41'0 0.0
2018-Apr-18 06:00N 37°56' E 023°41'0 0.0
2018-Apr-18 05:31N 37°56' E 023°41'0 0.0
2018-Apr-18 05:00N 37°56' E 023°41'0 0.0
2018-Apr-18 04:29N 37°56' E 023°41'0 0.0
2018-Apr-18 04:00N 37°56' E 023°41'0 0.0
2018-Apr-18 03:31N 37°56' E 023°41'0 0.0
2018-Apr-18 03:00N 37°56' E 023°41'0 0.0
2018-Apr-18 02:31N 37°56' E 023°41'0 0.0
2018-Apr-18 02:01N 37°56' E 023°41'0 0.0
2018-Apr-18 01:30N 37°56' E 023°41'0 0.0
2018-Apr-18 01:00N 37°56' E 023°41'0 0.0
2018-Apr-18 00:31N 37°56' E 023°41'0 0.0
2018-Apr-18 00:00N 37°56' E 023°41'0 0.0
2018-Apr-17 23:31N 37°56' E 023°41'0 0.0
2018-Apr-17 23:00N 37°56' E 023°41'0 0.0
2018-Apr-17 22:31N 37°56' E 023°41'0 0.0
2018-Apr-17 22:00N 37°56' E 023°41'0 0.0
2018-Apr-17 21:31N 37°56' E 023°41'0 0.0
2018-Apr-17 21:00N 37°56' E 023°41'0 0.0
2018-Apr-17 20:30N 37°56' E 023°41'0 0.0
2018-Apr-17 20:01N 37°56' E 023°41'0 0.0
2018-Apr-17 19:31N 37°56' E 023°41'0 0.0
2018-Apr-17 19:00N 37°56' E 023°41'0 0.0
2018-Apr-17 18:30N 37°56' E 023°41'0 0.0
2018-Apr-17 18:01N 37°56' E 023°41'0 0.0
2018-Apr-17 17:30N 37°56' E 023°41'0 0.0
2018-Apr-17 17:00N 37°56' E 023°41'5 9.3
2018-Apr-17 16:30N 37°54' E 023°36'714.4
2018-Apr-17 16:00N 37°49' E 023°29'510.2
2018-Apr-17 15:30N 37°45' E 023°26'0 0.0
2018-Apr-17 15:00N 37°45' E 023°26'0 0.0
2018-Apr-17 14:30N 37°45' E 023°26'0 0.0
2018-Apr-17 14:00N 37°45' E 023°26'0 0.0
2018-Apr-17 13:30N 37°45' E 023°26'0 0.0
2018-Apr-17 12:59N 37°45' E 023°26'613.5
2018-Apr-17 12:31N 37°38' E 023°25'714.5
2018-Apr-17 12:00N 37°31' E 023°25'2 3.3
2018-Apr-17 11:25N 37°30' E 023°27'0 0.0
2018-Apr-17 10:55N 37°30' E 023°27'3 7.8
2018-Apr-17 10:30N 37°28' E 023°30'612.1
2018-Apr-17 10:00N 37°22' E 023°29'1 0.6
2018-Apr-17 07:44N 37°21' E 023°28'314.5
2018-Apr-17 07:30N 37°24' E 023°31'714.6
2018-Apr-17 07:00N 37°30' E 023°35'714.4
2018-Apr-17 06:30N 37°37' E 023°37'714.4
2018-Apr-17 06:00N 37°45' E 023°38'714.4
2018-Apr-17 05:30N 37°52' E 023°40'5 9.4
2018-Apr-17 05:01N 37°56' E 023°41'0 0.0
2018-Apr-17 04:31N 37°56' E 023°41'0 0.0
2018-Apr-17 04:00N 37°56' E 023°41'0 0.0
2018-Apr-17 03:30N 37°56' E 023°41'0 0.0
2018-Apr-17 03:00N 37°56' E 023°41'0 0.0
2018-Apr-17 02:30N 37°56' E 023°41'0 0.0
2018-Apr-17 02:00N 37°56' E 023°41'0 0.0
2018-Apr-17 01:31N 37°56' E 023°41'0 0.0
2018-Apr-17 01:00N 37°56' E 023°41'0 0.0
2018-Apr-17 00:30N 37°56' E 023°41'0 0.0
2018-Apr-17 00:00N 37°56' E 023°41'0 0.0
2018-Apr-16 23:30N 37°56' E 023°41'0 0.0
2018-Apr-16 23:00N 37°56' E 023°41'0 0.0
2018-Apr-16 22:31N 37°56' E 023°41'0 0.0
2018-Apr-16 22:00N 37°56' E 023°41'0 0.0
2018-Apr-16 21:30N 37°56' E 023°41'0 0.0
2018-Apr-16 21:00N 37°56' E 023°41'0 0.0
2018-Apr-16 20:30N 37°56' E 023°41'0 0.0
2018-Apr-16 20:00N 37°56' E 023°41'0 0.0
2018-Apr-16 19:30N 37°56' E 023°41'0 0.0
2018-Apr-16 19:00N 37°56' E 023°41'0 0.0
2018-Apr-16 18:31N 37°56' E 023°41'0 0.0
2018-Apr-16 18:00N 37°56' E 023°41'0 0.0
2018-Apr-16 17:30N 37°56' E 023°41'0 0.0
2018-Apr-16 17:00N 37°56' E 023°41'0 0.4
2018-Apr-16 16:30N 37°56' E 023°41'713.9
2018-Apr-16 16:00N 37°52' E 023°34'714.5
2018-Apr-16 15:30N 37°47' E 023°27'3 5.5
2018-Apr-16 15:00N 37°45' E 023°26'0 0.0
2018-Apr-16 14:31N 37°45' E 023°26'0 0.0
2018-Apr-16 14:01N 37°45' E 023°26'0 0.0
2018-Apr-16 13:31N 37°45' E 023°26'0 0.0
2018-Apr-16 13:00N 37°45' E 023°26'4 7.0
2018-Apr-16 12:30N 37°41' E 023°25'714.6
2018-Apr-16 12:00N 37°34' E 023°25'4 8.2
2018-Apr-16 11:30N 37°30' E 023°27'0 0.0
2018-Apr-16 11:00N 37°30' E 023°27'3 5.3
2018-Apr-16 10:30N 37°29' E 023°30'611.7
2018-Apr-16 09:59N 37°23' E 023°29'1 0.6
2018-Apr-16 07:42N 37°22' E 023°28'414.7
2018-Apr-16 07:28N 37°24' E 023°31'714.4
2018-Apr-16 07:00N 37°30' E 023°34'714.7
2018-Apr-16 06:30N 37°38' E 023°36'714.8
2018-Apr-16 06:00N 37°45' E 023°38'714.6
2018-Apr-16 05:30N 37°52' E 023°39'4 8.6
2018-Apr-16 05:00N 37°56' E 023°41'0 0.0
2018-Apr-16 04:30N 37°56' E 023°41'0 0.0
2018-Apr-16 04:00N 37°56' E 023°41'0 0.0
2018-Apr-16 03:29N 37°56' E 023°41'0 0.0
2018-Apr-16 03:00N 37°56' E 023°41'0 0.0
2018-Apr-16 02:30N 37°56' E 023°41'0 0.0
2018-Apr-16 01:49N 37°56' E 023°41'0 0.0
2018-Apr-16 01:30N 37°56' E 023°41'0 0.0
2018-Apr-16 01:00N 37°56' E 023°41'0 0.0
2018-Apr-16 00:30N 37°56' E 023°41'0 0.0
2018-Apr-16 00:00N 37°56' E 023°41'0 0.0
2018-Apr-15 23:30N 37°56' E 023°41'0 0.0
2018-Apr-15 23:00N 37°56' E 023°41'0 0.0
2018-Apr-15 22:30N 37°56' E 023°41'0 0.0
2018-Apr-15 22:00N 37°56' E 023°41'0 0.0
2018-Apr-15 21:30N 37°56' E 023°41'0 0.0
2018-Apr-15 20:55N 37°56' E 023°41'0 0.0
2018-Apr-15 20:30N 37°56' E 023°41'0 0.0
2018-Apr-15 19:50N 37°56' E 023°41'0 0.0
2018-Apr-15 19:30N 37°56' E 023°41'0 0.0
2018-Apr-15 19:00N 37°56' E 023°41'0 0.0
2018-Apr-15 18:30N 37°56' E 023°41'0 0.0
2018-Apr-15 17:57N 37°56' E 023°41'0 0.0
2018-Apr-15 17:30N 37°56' E 023°41'0 0.0
2018-Apr-15 17:00N 37°56' E 023°41'0 0.1
2018-Apr-15 16:30N 37°56' E 023°41'612.2
2018-Apr-15 16:00N 37°53' E 023°35'714.5
2018-Apr-15 15:30N 37°48' E 023°28'4 7.6
2018-Apr-15 15:00N 37°45' E 023°26'0 0.0
2018-Apr-15 14:30N 37°45' E 023°26'0 0.0
2018-Apr-15 13:59N 37°45' E 023°26'0 0.0
2018-Apr-15 13:30N 37°45' E 023°26'0 0.1
2018-Apr-15 13:01N 37°45' E 023°25'713.6
2018-Apr-15 12:30N 37°38' E 023°25'714.1
2018-Apr-15 12:00N 37°31' E 023°26'1 1.2
2018-Apr-15 10:56N 37°30' E 023°27'610.1
2018-Apr-15 10:20N 37°26' E 023°33'0 0.0
2018-Apr-15 07:25N 37°26' E 023°32'814.6
2018-Apr-15 06:52N 37°34' E 023°35'514.5
2018-Apr-15 06:30N 37°39' E 023°36'714.5
2018-Apr-15 06:00N 37°46' E 023°37'714.5
2018-Apr-15 05:30N 37°53' E 023°40'3 6.8
2018-Apr-15 05:00N 37°56' E 023°41'0 0.0
2018-Apr-15 04:26N 37°56' E 023°41'0 0.0
2018-Apr-15 04:00N 37°56' E 023°41'0 0.0
2018-Apr-15 03:10N 37°56' E 023°41'0 0.0
2018-Apr-15 02:59N 37°56' E 023°41'0 0.0
2018-Apr-15 02:30N 37°56' E 023°41'0 0.0
2018-Apr-15 02:00N 37°56' E 023°41'0 0.0
2018-Apr-15 01:29N 37°56' E 023°41'0 0.0
2018-Apr-15 01:00N 37°56' E 023°41'0 0.0
2018-Apr-15 00:23N 37°56' E 023°41'0 0.0
2018-Apr-14 23:54N 37°56' E 023°41'0 0.0
2018-Apr-14 23:29N 37°56' E 023°41'0 0.0
2018-Apr-14 23:00N 37°56' E 023°41'0 0.0
2018-Apr-14 22:30N 37°56' E 023°41'0 0.0
2018-Apr-14 22:00N 37°56' E 023°41'0 0.0
2018-Apr-14 21:30N 37°56' E 023°41'0 0.0
2018-Apr-14 21:00N 37°56' E 023°41'0 0.0
2018-Apr-14 20:27N 37°56' E 023°41'0 0.0
2018-Apr-14 20:01N 37°56' E 023°41'0 0.0
2018-Apr-14 19:30N 37°56' E 023°41'0 0.0
2018-Apr-14 19:00N 37°56' E 023°41'0 0.0
2018-Apr-14 18:30N 37°56' E 023°41'0 0.0
2018-Apr-14 18:00N 37°56' E 023°41'0 0.0
2018-Apr-14 17:30N 37°56' E 023°41'0 0.0
2018-Apr-14 16:59N 37°56' E 023°41'0 0.0
2018-Apr-14 16:30N 37°56' E 023°41'3 5.7
2018-Apr-14 16:01N 37°55' E 023°38'714.6
2018-Apr-14 15:31N 37°50' E 023°31'713.5
2018-Apr-14 15:00N 37°45' E 023°25'0 0.3
2018-Apr-14 13:58N 37°45' E 023°26'0 0.0
2018-Apr-14 13:20N 37°45' E 023°26'0 0.0
2018-Apr-14 13:00N 37°45' E 023°26'611.9
2018-Apr-14 12:30N 37°39' E 023°25'13 6.2
2018-Apr-14 10:27N 37°27' E 023°32'2 0.5
2018-Apr-14 07:24N 37°26' E 023°32'1314.5
2018-Apr-14 06:29N 37°39' E 023°37'714.3
2018-Apr-14 06:00N 37°45' E 023°39'714.4
2018-Apr-14 05:30N 37°53' E 023°40'4 2.0
2018-Apr-14 03:37N 37°56' E 023°41'0 0.0
2018-Apr-14 03:12N 37°56' E 023°41'0 0.0
2018-Apr-14 02:52N 37°56' E 023°41'0 0.0
2018-Apr-14 01:23N 37°56' E 023°41'0 0.0
2018-Apr-14 00:57N 37°56' E 023°41'0 0.0
2018-Apr-14 00:23N 37°56' E 023°41'0 0.0
2018-Apr-13 23:59N 37°56' E 023°41'0 0.0
2018-Apr-13 23:28N 37°56' E 023°41'0 0.0
2018-Apr-13 22:58N 37°56' E 023°41'0 0.0
2018-Apr-13 22:19N 37°56' E 023°41'0 0.0
2018-Apr-13 22:00N 37°56' E 023°41'0 0.0
2018-Apr-13 21:27N 37°56' E 023°41'0 0.0
2018-Apr-13 20:58N 37°56' E 023°41'0 0.0
2018-Apr-13 20:30N 37°56' E 023°41'0 0.0
2018-Apr-13 19:55N 37°56' E 023°41'0 0.0
2018-Apr-13 19:19N 37°56' E 023°41'0 0.0
2018-Apr-13 19:00N 37°56' E 023°41'0 0.0
2018-Apr-13 18:27N 37°56' E 023°41'0 0.0
2018-Apr-13 18:00N 37°56' E 023°41'0 0.0
2018-Apr-13 17:30N 37°56' E 023°41'0 0.0
2018-Apr-13 16:58N 37°56' E 023°41'0 0.0
2018-Apr-13 16:29N 37°56' E 023°41'5 9.8
2018-Apr-13 16:00N 37°53' E 023°36'714.4
2018-Apr-13 15:30N 37°49' E 023°29'510.0
2018-Apr-13 15:00N 37°45' E 023°26'0 0.0
2018-Apr-13 14:30N 37°45' E 023°26'0 0.0
2018-Apr-13 14:01N 37°45' E 023°26'  
Track history (hours):
 
Tides and Currents Weather Stations Pressure Air Temp Water Temp Dewpoint Dewpoint Depression Visibility Wind Speed Wind Dir Waves Ship Positions

Cosmos

Last reported at 2018-Apr-23 13:30 UTC. Time now 2018-Apr-23 13:42 UTC.
Position N 37°45' E 023°26'.

Length 68 m; draft 3 m.

Type: Passenger vessel. MMSI: 237013400.

Date/timePositionNaut miles runAvg speedWind from/ knotsBaromVisibWave heightAir tempDewpointWater temp
2018-Apr-23 13:30N 37°45' E 023°26'0 0.4
2018-Apr-23 13:00N 37°45' E 023°25'713.3
2018-Apr-23 12:30N 37°38' E 023°25'713.8
2018-Apr-23 12:01N 37°31' E 023°25'2 3.7
2018-Apr-23 11:30N 37°30' E 023°27'0 0.0
2018-Apr-23 10:59N 37°30' E 023°27'5 9.9
2018-Apr-23 10:31N 37°27' E 023°32'6 2.4
2018-Apr-23 07:56N 37°22' E 023°28'614.1
2018-Apr-23 07:30N 37°26' E 023°33'714.2
2018-Apr-23 07:00N 37°33' E 023°35'714.1
2018-Apr-23 06:30N 37°40' E 023°37'714.2
2018-Apr-23 06:00N 37°47' E 023°39'714.1
2018-Apr-23 05:30N 37°54' E 023°40'2 4.8
2018-Apr-23 05:00N 37°56' E 023°41'0 0.0
2018-Apr-23 04:30N 37°56' E 023°41'0 0.0
2018-Apr-23 04:00N 37°56' E 023°41'0 0.0
2018-Apr-23 03:30N 37°56' E 023°41'0 0.0
2018-Apr-23 03:01N 37°56' E 023°41'0 0.0
2018-Apr-23 02:31N 37°56' E 023°41'0 0.0
2018-Apr-23 02:01N 37°56' E 023°41'0 0.0
2018-Apr-23 01:30N 37°56' E 023°41'0 0.0
2018-Apr-23 01:01N 37°56' E 023°41'0 0.0
2018-Apr-23 00:31N 37°56' E 023°41'0 0.0
2018-Apr-23 00:01N 37°56' E 023°41'0 0.0
2018-Apr-22 23:30N 37°56' E 023°41'0 0.0
2018-Apr-22 23:01N 37°56' E 023°41'0 0.0
2018-Apr-22 22:31N 37°56' E 023°41'0 0.0
2018-Apr-22 22:01N 37°56' E 023°41'0 0.0
2018-Apr-22 21:30N 37°56' E 023°41'0 0.0
2018-Apr-22 21:01N 37°56' E 023°41'0 0.0
2018-Apr-22 20:31N 37°56' E 023°41'0 0.0
2018-Apr-22 20:01N 37°56' E 023°41'0 0.0
2018-Apr-22 19:31N 37°56' E 023°41'0 0.0
2018-Apr-22 19:01N 37°56' E 023°41'0 0.0
2018-Apr-22 18:31N 37°56' E 023°41'0 0.0
2018-Apr-22 18:01N 37°56' E 023°41'0 0.0
2018-Apr-22 17:30N 37°56' E 023°41'0 0.0
2018-Apr-22 17:01N 37°56' E 023°41'0 0.0
2018-Apr-22 16:31N 37°56' E 023°41'2 4.2
2018-Apr-22 16:01N 37°55' E 023°39'714.0
2018-Apr-22 15:31N 37°51' E 023°32'714.0
2018-Apr-22 15:00N 37°46' E 023°25'2 3.2
2018-Apr-22 14:30N 37°45' E 023°26'0 0.0
2018-Apr-22 14:00N 37°45' E 023°26'0 0.0
2018-Apr-22 13:30N 37°45' E 023°26'0 0.0
2018-Apr-22 13:00N 37°45' E 023°26'3 6.6
2018-Apr-22 12:31N 37°41' E 023°25'714.2
2018-Apr-22 11:59N 37°34' E 023°25'4 3.4
2018-Apr-22 10:43N 37°30' E 023°27'1 5.5
2018-Apr-22 10:30N 37°30' E 023°28'710.9
2018-Apr-22 09:52N 37°23' E 023°30'2 0.7
2018-Apr-22 07:32N 37°22' E 023°28'013.6
2018-Apr-22 07:30N 37°22' E 023°29'714.1
2018-Apr-22 07:00N 37°28' E 023°34'714.5
2018-Apr-22 06:30N 37°35' E 023°35'714.2
2018-Apr-22 06:00N 37°42' E 023°36'714.0
2018-Apr-22 05:31N 37°49' E 023°38'713.4
2018-Apr-22 05:00N 37°55' E 023°40'1 2.7
2018-Apr-22 04:30N 37°56' E 023°41'0 0.0
2018-Apr-22 04:00N 37°56' E 023°41'0 0.0
2018-Apr-22 03:30N 37°56' E 023°41'0 0.0
2018-Apr-22 03:01N 37°56' E 023°41'0 0.0
2018-Apr-22 02:30N 37°56' E 023°41'0 0.0
2018-Apr-22 02:00N 37°56' E 023°41'0 0.0
2018-Apr-22 01:30N 37°56' E 023°41'0 0.0
2018-Apr-22 01:00N 37°56' E 023°41'0 0.0
2018-Apr-22 00:30N 37°56' E 023°41'0 0.0
2018-Apr-22 00:00N 37°56' E 023°41'0 0.0
2018-Apr-21 23:30N 37°56' E 023°41'0 0.0
2018-Apr-21 23:00N 37°56' E 023°41'0 0.0
2018-Apr-21 22:30N 37°56' E 023°41'0 0.0
2018-Apr-21 22:00N 37°56' E 023°41'0 0.0
2018-Apr-21 21:30N 37°56' E 023°41'0 0.0
2018-Apr-21 21:00N 37°56' E 023°41'0 0.0
2018-Apr-21 20:30N 37°56' E 023°41'0 0.0
2018-Apr-21 20:00N 37°56' E 023°41'0 0.0
2018-Apr-21 19:30N 37°56' E 023°41'0 0.0
2018-Apr-21 19:00N 37°56' E 023°41'0 0.0
2018-Apr-21 18:30N 37°56' E 023°41'0 0.0
2018-Apr-21 18:00N 37°56' E 023°41'0 0.0
2018-Apr-21 17:30N 37°56' E 023°41'0 0.0
2018-Apr-21 17:00N 37°56' E 023°41'611.0
2018-Apr-21 16:30N 37°53' E 023°35'714.1
2018-Apr-21 16:00N 37°48' E 023°29'4 8.9
2018-Apr-21 15:30N 37°45' E 023°26'0 0.0
2018-Apr-21 15:00N 37°45' E 023°26'0 0.0
2018-Apr-21 14:30N 37°45' E 023°26'0 0.0
2018-Apr-21 14:00N 37°45' E 023°26'3 5.1
2018-Apr-21 13:30N 37°42' E 023°25'714.2
2018-Apr-21 13:00N 37°35' E 023°25'5 9.9
2018-Apr-21 12:28N 37°30' E 023°27'0 0.0
2018-Apr-21 12:00N 37°30' E 023°27'1 2.5
2018-Apr-21 11:30N 37°30' E 023°29'710.6
2018-Apr-21 10:49N 37°22' E 023°29'1 0.5
2018-Apr-21 08:07N 37°21' E 023°28'0 2.3
2018-Apr-21 07:55N 37°22' E 023°28'714.8
2018-Apr-21 07:28N 37°27' E 023°33'714.8
2018-Apr-21 07:00N 37°33' E 023°35'714.4
2018-Apr-21 06:30N 37°40' E 023°37'714.3
2018-Apr-21 06:00N 37°47' E 023°39'714.3
2018-Apr-21 05:30N 37°55' E 023°40'2 3.5
2018-Apr-21 05:00N 37°56' E 023°41'0 0.0
2018-Apr-21 04:30N 37°56' E 023°41'0 0.0
2018-Apr-21 04:00N 37°56' E 023°41'0 0.0
2018-Apr-21 03:30N 37°56' E 023°41'0 0.0
2018-Apr-21 03:00N 37°56' E 023°41'0 0.0
2018-Apr-21 02:29N 37°56' E 023°41'0 0.0
2018-Apr-21 02:00N 37°56' E 023°41'0 0.0
2018-Apr-21 01:30N 37°56' E 023°41'0 0.0
2018-Apr-21 01:00N 37°56' E 023°41'0 0.0
2018-Apr-21 00:30N 37°56' E 023°41'0 0.0
2018-Apr-20 23:59N 37°56' E 023°41'0 0.0
2018-Apr-20 23:30N 37°56' E 023°41'0 0.0
2018-Apr-20 23:00N 37°56' E 023°41'0 0.0
2018-Apr-20 22:30N 37°56' E 023°41'0 0.0
2018-Apr-20 22:00N 37°56' E 023°41'0 0.0
2018-Apr-20 21:30N 37°56' E 023°41'0 0.0
2018-Apr-20 21:00N 37°56' E 023°41'0 0.0
2018-Apr-20 20:30N 37°56' E 023°41'0 0.0
2018-Apr-20 20:00N 37°56' E 023°41'0 0.0
2018-Apr-20 19:30N 37°56' E 023°41'0 0.0
2018-Apr-20 19:00N 37°56' E 023°41'0 0.0
2018-Apr-20 18:30N 37°56' E 023°41'0 0.0
2018-Apr-20 18:00N 37°56' E 023°41'0 0.0
2018-Apr-20 17:30N 37°56' E 023°41'0 0.0
2018-Apr-20 17:00N 37°56' E 023°41'2 3.8
2018-Apr-20 16:30N 37°55' E 023°39'713.8
2018-Apr-20 16:00N 37°51' E 023°32'713.8
2018-Apr-20 15:30N 37°47' E 023°25'2 3.7
2018-Apr-20 15:00N 37°45' E 023°26'0 0.0
2018-Apr-20 14:30N 37°45' E 023°26'0 0.0
2018-Apr-20 14:00N 37°45' E 023°26'0 0.1
2018-Apr-20 13:30N 37°45' E 023°25'1 1.5
2018-Apr-20 13:00N 37°44' E 023°25'713.8
2018-Apr-20 12:31N 37°37' E 023°25'713.1
2018-Apr-20 11:58N 37°30' E 023°27'0 0.2
2018-Apr-20 11:00N 37°30' E 023°27'510.0
2018-Apr-20 10:30N 37°27' E 023°32'6 2.3
2018-Apr-20 07:56N 37°22' E 023°28'614.3
2018-Apr-20 07:29N 37°27' E 023°33'714.6
2018-Apr-20 07:00N 37°33' E 023°35'714.4
2018-Apr-20 06:30N 37°40' E 023°37'714.3
2018-Apr-20 06:00N 37°47' E 023°38'713.7
2018-Apr-20 05:30N 37°54' E 023°40'2 4.5
2018-Apr-20 05:00N 37°56' E 023°41'0 0.0
2018-Apr-20 04:30N 37°56' E 023°41'0 0.0
2018-Apr-20 04:00N 37°56' E 023°41'0 0.0
2018-Apr-20 03:30N 37°56' E 023°41'0 0.0
2018-Apr-20 03:01N 37°56' E 023°41'0 0.0
2018-Apr-20 02:30N 37°56' E 023°41'0 0.0
2018-Apr-20 02:01N 37°56' E 023°41'0 0.0
2018-Apr-20 01:30N 37°56' E 023°41'0 0.0
2018-Apr-20 01:01N 37°56' E 023°41'0 0.0
2018-Apr-20 00:31N 37°56' E 023°41'0 0.0
2018-Apr-20 00:01N 37°56' E 023°41'0 0.0
2018-Apr-19 23:30N 37°56' E 023°41'0 0.0
2018-Apr-19 23:00N 37°56' E 023°41'0 0.0
2018-Apr-19 22:30N 37°56' E 023°41'0 0.0
2018-Apr-19 22:00N 37°56' E 023°41'0 0.0
2018-Apr-19 21:30N 37°56' E 023°41'0 0.0
2018-Apr-19 21:00N 37°56' E 023°41'0 0.0
2018-Apr-19 20:30N 37°56' E 023°41'0 0.0
2018-Apr-19 20:00N 37°56' E 023°41'0 0.0
2018-Apr-19 19:30N 37°56' E 023°41'0 0.0
2018-Apr-19 19:00N 37°56' E 023°41'0 0.0
2018-Apr-19 18:31N 37°56' E 023°41'0 0.0
2018-Apr-19 18:00N 37°56' E 023°41'0 0.0
2018-Apr-19 17:31N 37°56' E 023°41'0 0.0
2018-Apr-19 17:01N 37°56' E 023°41'0 0.0
2018-Apr-19 16:31N 37°56' E 023°41'0 0.0
2018-Apr-19 16:00N 37°56' E 023°41'0 0.0
2018-Apr-19 15:30N 37°56' E 023°41'0 0.0
2018-Apr-19 15:00N 37°56' E 023°41'0 0.0
2018-Apr-19 14:30N 37°56' E 023°41'0 0.0
2018-Apr-19 14:00N 37°56' E 023°41'0 0.0
2018-Apr-19 13:30N 37°56' E 023°41'0 0.0
2018-Apr-19 13:00N 37°56' E 023°41'0 0.0
2018-Apr-19 12:30N 37°56' E 023°41'0 0.0
2018-Apr-19 12:00N 37°56' E 023°41'0 0.0
2018-Apr-19 11:30N 37°56' E 023°41'0 0.0
2018-Apr-19 11:00N 37°56' E 023°41'0 0.0
2018-Apr-19 10:30N 37°56' E 023°41'0 0.0
2018-Apr-19 10:01N 37°56' E 023°41'0 0.0
2018-Apr-19 09:30N 37°56' E 023°41'0 0.0
2018-Apr-19 09:01N 37°56' E 023°41'0 0.0
2018-Apr-19 08:30N 37°56' E 023°41'0 0.0
2018-Apr-19 08:01N 37°56' E 023°41'0 0.0
2018-Apr-19 07:30N 37°56' E 023°41'0 0.0
2018-Apr-19 07:00N 37°56' E 023°41'0 0.0
2018-Apr-19 06:30N 37°56' E 023°41'0 0.0
2018-Apr-19 06:00N 37°56' E 023°41'0 0.0
2018-Apr-19 05:31N 37°56' E 023°41'0 0.0
2018-Apr-19 05:00N 37°56' E 023°41'0 0.0
2018-Apr-19 04:30N 37°56' E 023°41'0 0.0
2018-Apr-19 04:01N 37°56' E 023°41'0 0.0
2018-Apr-19 03:30N 37°56' E 023°41'0 0.0
2018-Apr-19 03:00N 37°56' E 023°41'0 0.0
2018-Apr-19 02:30N 37°56' E 023°41'0 0.0
2018-Apr-19 02:01N 37°56' E 023°41'0 0.0
2018-Apr-19 01:30N 37°56' E 023°41'0 0.0
2018-Apr-19 01:00N 37°56' E 023°41'0 0.0
2018-Apr-19 00:30N 37°56' E 023°41'0 0.0
2018-Apr-19 00:00N 37°56' E 023°41'0 0.0
2018-Apr-18 23:31N 37°56' E 023°41'0 0.0
2018-Apr-18 23:00N 37°56' E 023°41'0 0.0
2018-Apr-18 22:30N 37°56' E 023°41'0 0.0
2018-Apr-18 22:01N 37°56' E 023°41'0 0.0
2018-Apr-18 21:30N 37°56' E 023°41'0 0.0
2018-Apr-18 21:01N 37°56' E 023°41'0 0.0
2018-Apr-18 20:31N 37°56' E 023°41'0 0.0
2018-Apr-18 20:00N 37°56' E 023°41'0 0.0
2018-Apr-18 19:30N 37°56' E 023°41'0 0.0
2018-Apr-18 19:00N 37°56' E 023°41'0 0.0
2018-Apr-18 18:30N 37°56' E 023°41'0 0.0
2018-Apr-18 18:00N 37°56' E 023°41'0 0.0
2018-Apr-18 17:31N 37°56' E 023°41'0 0.0
2018-Apr-18 17:00N 37°56' E 023°41'0 0.0
2018-Apr-18 16:31N 37°56' E 023°41'0 0.0
2018-Apr-18 16:01N 37°56' E 023°41'0 0.0
2018-Apr-18 15:30N 37°56' E 023°41'0 0.0
2018-Apr-18 15:00N 37°56' E 023°41'0 0.0
2018-Apr-18 14:31N 37°56' E 023°41'0 0.0
2018-Apr-18 14:00N 37°56' E 023°41'0 0.0
2018-Apr-18 13:30N 37°56' E 023°41'0 0.0
2018-Apr-18 13:00N 37°56' E 023°41'0 0.0
2018-Apr-18 12:30N 37°56' E 023°41'0 0.0
2018-Apr-18 12:00N 37°56' E 023°41'0 0.0
2018-Apr-18 11:30N 37°56' E 023°41'0 0.0
2018-Apr-18 10:59N 37°56' E 023°41'0 0.0
2018-Apr-18 10:31N 37°56' E 023°41'0 0.0
2018-Apr-18 10:00N 37°56' E 023°41'0 0.0
2018-Apr-18 09:30N 37°56' E 023°41'0 0.0
2018-Apr-18 09:01N 37°56' E 023°41'0 0.0
2018-Apr-18 08:30N 37°56' E 023°41'0 0.0
2018-Apr-18 08:00N 37°56' E 023°41'0 0.0
2018-Apr-18 07:30N 37°56' E 023°41'0 0.0
2018-Apr-18 07:01N 37°56' E 023°41'0 0.0
2018-Apr-18 06:30N 37°56' E 023°41'0 0.0
2018-Apr-18 06:00N 37°56' E 023°41'0 0.0
2018-Apr-18 05:31N 37°56' E 023°41'0 0.0
2018-Apr-18 05:00N 37°56' E 023°41'0 0.0
2018-Apr-18 04:29N 37°56' E 023°41'0 0.0
2018-Apr-18 04:00N 37°56' E 023°41'0 0.0
2018-Apr-18 03:31N 37°56' E 023°41'0 0.0
2018-Apr-18 03:00N 37°56' E 023°41'0 0.0
2018-Apr-18 02:31N 37°56' E 023°41'0 0.0
2018-Apr-18 02:01N 37°56' E 023°41'0 0.0
2018-Apr-18 01:30N 37°56' E 023°41'0 0.0
2018-Apr-18 01:00N 37°56' E 023°41'0 0.0
2018-Apr-18 00:31N 37°56' E 023°41'0 0.0
2018-Apr-18 00:00N 37°56' E 023°41'0 0.0
2018-Apr-17 23:31N 37°56' E 023°41'0 0.0
2018-Apr-17 23:00N 37°56' E 023°41'0 0.0
2018-Apr-17 22:31N 37°56' E 023°41'0 0.0
2018-Apr-17 22:00N 37°56' E 023°41'0 0.0
2018-Apr-17 21:31N 37°56' E 023°41'0 0.0
2018-Apr-17 21:00N 37°56' E 023°41'0 0.0
2018-Apr-17 20:30N 37°56' E 023°41'0 0.0
2018-Apr-17 20:01N 37°56' E 023°41'0 0.0
2018-Apr-17 19:31N 37°56' E 023°41'0 0.0
2018-Apr-17 19:00N 37°56' E 023°41'0 0.0
2018-Apr-17 18:30N 37°56' E 023°41'0 0.0
2018-Apr-17 18:01N 37°56' E 023°41'0 0.0
2018-Apr-17 17:30N 37°56' E 023°41'0 0.0
2018-Apr-17 17:00N 37°56' E 023°41'5 9.3
2018-Apr-17 16:30N 37°54' E 023°36'714.4
2018-Apr-17 16:00N 37°49' E 023°29'510.2
2018-Apr-17 15:30N 37°45' E 023°26'0 0.0
2018-Apr-17 15:00N 37°45' E 023°26'0 0.0
2018-Apr-17 14:30N 37°45' E 023°26'0 0.0
2018-Apr-17 14:00N 37°45' E 023°26'0 0.0
2018-Apr-17 13:30N 37°45' E 023°26'0 0.0
2018-Apr-17 12:59N 37°45' E 023°26'613.5
2018-Apr-17 12:31N 37°38' E 023°25'714.5
2018-Apr-17 12:00N 37°31' E 023°25'2 3.3
2018-Apr-17 11:25N 37°30' E 023°27'0 0.0
2018-Apr-17 10:55N 37°30' E 023°27'3 7.8
2018-Apr-17 10:30N 37°28' E 023°30'612.1
2018-Apr-17 10:00N 37°22' E 023°29'1 0.6
2018-Apr-17 07:44N 37°21' E 023°28'314.5
2018-Apr-17 07:30N 37°24' E 023°31'714.6
2018-Apr-17 07:00N 37°30' E 023°35'714.4
2018-Apr-17 06:30N 37°37' E 023°37'714.4
2018-Apr-17 06:00N 37°45' E 023°38'714.4
2018-Apr-17 05:30N 37°52' E 023°40'5 9.4
2018-Apr-17 05:01N 37°56' E 023°41'0 0.0
2018-Apr-17 04:31N 37°56' E 023°41'0 0.0
2018-Apr-17 04:00N 37°56' E 023°41'0 0.0
2018-Apr-17 03:30N 37°56' E 023°41'0 0.0
2018-Apr-17 03:00N 37°56' E 023°41'0 0.0
2018-Apr-17 02:30N 37°56' E 023°41'0 0.0
2018-Apr-17 02:00N 37°56' E 023°41'0 0.0
2018-Apr-17 01:31N 37°56' E 023°41'0 0.0
2018-Apr-17 01:00N 37°56' E 023°41'0 0.0
2018-Apr-17 00:30N 37°56' E 023°41'0 0.0
2018-Apr-17 00:00N 37°56' E 023°41'0 0.0
2018-Apr-16 23:30N 37°56' E 023°41'0 0.0
2018-Apr-16 23:00N 37°56' E 023°41'0 0.0
2018-Apr-16 22:31N 37°56' E 023°41'0 0.0
2018-Apr-16 22:00N 37°56' E 023°41'0 0.0
2018-Apr-16 21:30N 37°56' E 023°41'0 0.0
2018-Apr-16 21:00N 37°56' E 023°41'0 0.0
2018-Apr-16 20:30N 37°56' E 023°41'0 0.0
2018-Apr-16 20:00N 37°56' E 023°41'0 0.0
2018-Apr-16 19:30N 37°56' E 023°41'0 0.0
2018-Apr-16 19:00N 37°56' E 023°41'0 0.0
2018-Apr-16 18:31N 37°56' E 023°41'0 0.0
2018-Apr-16 18:00N 37°56' E 023°41'0 0.0
2018-Apr-16 17:30N 37°56' E 023°41'0 0.0
2018-Apr-16 17:00N 37°56' E 023°41'0 0.4
2018-Apr-16 16:30N 37°56' E 023°41'713.9
2018-Apr-16 16:00N 37°52' E 023°34'714.5
2018-Apr-16 15:30N 37°47' E 023°27'3 5.5
2018-Apr-16 15:00N 37°45' E 023°26'0 0.0
2018-Apr-16 14:31N 37°45' E 023°26'0 0.0
2018-Apr-16 14:01N 37°45' E 023°26'0 0.0
2018-Apr-16 13:31N 37°45' E 023°26'0 0.0
2018-Apr-16 13:00N 37°45' E 023°26'4 7.0
2018-Apr-16 12:30N 37°41' E 023°25'714.6
2018-Apr-16 12:00N 37°34' E 023°25'4 8.2
2018-Apr-16 11:30N 37°30' E 023°27'0 0.0
2018-Apr-16 11:00N 37°30' E 023°27'3 5.3
2018-Apr-16 10:30N 37°29' E 023°30'611.7
2018-Apr-16 09:59N 37°23' E 023°29'1 0.6
2018-Apr-16 07:42N 37°22' E 023°28'414.7
2018-Apr-16 07:28N 37°24' E 023°31'714.4
2018-Apr-16 07:00N 37°30' E 023°34'714.7
2018-Apr-16 06:30N 37°38' E 023°36'714.8
2018-Apr-16 06:00N 37°45' E 023°38'714.6
2018-Apr-16 05:30N 37°52' E 023°39'4 8.6
2018-Apr-16 05:00N 37°56' E 023°41'0 0.0
2018-Apr-16 04:30N 37°56' E 023°41'0 0.0
2018-Apr-16 04:00N 37°56' E 023°41'0 0.0
2018-Apr-16 03:29N 37°56' E 023°41'0 0.0
2018-Apr-16 03:00N 37°56' E 023°41'0 0.0
2018-Apr-16 02:30N 37°56' E 023°41'0 0.0
2018-Apr-16 01:49N 37°56' E 023°41'0 0.0
2018-Apr-16 01:30N 37°56' E 023°41'0 0.0
2018-Apr-16 01:00N 37°56' E 023°41'0 0.0
2018-Apr-16 00:30N 37°56' E 023°41'0 0.0
2018-Apr-16 00:00N 37°56' E 023°41'0 0.0
2018-Apr-15 23:30N 37°56' E 023°41'0 0.0
2018-Apr-15 23:00N 37°56' E 023°41'0 0.0
2018-Apr-15 22:30N 37°56' E 023°41'0 0.0
2018-Apr-15 22:00N 37°56' E 023°41'0 0.0
2018-Apr-15 21:30N 37°56' E 023°41'0 0.0
2018-Apr-15 20:55N 37°56' E 023°41'0 0.0
2018-Apr-15 20:30N 37°56' E 023°41'0 0.0
2018-Apr-15 19:50N 37°56' E 023°41'0 0.0
2018-Apr-15 19:30N 37°56' E 023°41'0 0.0
2018-Apr-15 19:00N 37°56' E 023°41'0 0.0
2018-Apr-15 18:30N 37°56' E 023°41'0 0.0
2018-Apr-15 17:57N 37°56' E 023°41'0 0.0
2018-Apr-15 17:30N 37°56' E 023°41'0 0.0
2018-Apr-15 17:00N 37°56' E 023°41'0 0.1
2018-Apr-15 16:30N 37°56' E 023°41'612.2
2018-Apr-15 16:00N 37°53' E 023°35'714.5
2018-Apr-15 15:30N 37°48' E 023°28'4 7.6
2018-Apr-15 15:00N 37°45' E 023°26'0 0.0
2018-Apr-15 14:30N 37°45' E 023°26'0 0.0
2018-Apr-15 13:59N 37°45' E 023°26'0 0.0
2018-Apr-15 13:30N 37°45' E 023°26'0 0.1
2018-Apr-15 13:01N 37°45' E 023°25'713.6
2018-Apr-15 12:30N 37°38' E 023°25'714.1
2018-Apr-15 12:00N 37°31' E 023°26'1 1.2
2018-Apr-15 10:56N 37°30' E 023°27'610.1
2018-Apr-15 10:20N 37°26' E 023°33'0 0.0
2018-Apr-15 07:25N 37°26' E 023°32'814.6
2018-Apr-15 06:52N 37°34' E 023°35'514.5
2018-Apr-15 06:30N 37°39' E 023°36'714.5
2018-Apr-15 06:00N 37°46' E 023°37'714.5
2018-Apr-15 05:30N 37°53' E 023°40'3 6.8
2018-Apr-15 05:00N 37°56' E 023°41'0 0.0
2018-Apr-15 04:26N 37°56' E 023°41'0 0.0
2018-Apr-15 04:00N 37°56' E 023°41'0 0.0
2018-Apr-15 03:10N 37°56' E 023°41'0 0.0
2018-Apr-15 02:59N 37°56' E 023°41'0 0.0
2018-Apr-15 02:30N 37°56' E 023°41'0 0.0
2018-Apr-15 02:00N 37°56' E 023°41'0 0.0
2018-Apr-15 01:29N 37°56' E 023°41'0 0.0
2018-Apr-15 01:00N 37°56' E 023°41'0 0.0
2018-Apr-15 00:23N 37°56' E 023°41'0 0.0
2018-Apr-14 23:54N 37°56' E 023°41'0 0.0
2018-Apr-14 23:29N 37°56' E 023°41'0 0.0
2018-Apr-14 23:00N 37°56' E 023°41'0 0.0
2018-Apr-14 22:30N 37°56' E 023°41'0 0.0
2018-Apr-14 22:00N 37°56' E 023°41'0 0.0
2018-Apr-14 21:30N 37°56' E 023°41'0 0.0
2018-Apr-14 21:00N 37°56' E 023°41'0 0.0
2018-Apr-14 20:27N 37°56' E 023°41'0 0.0
2018-Apr-14 20:01N 37°56' E 023°41'0 0.0
2018-Apr-14 19:30N 37°56' E 023°41'0 0.0
2018-Apr-14 19:00N 37°56' E 023°41'0 0.0
2018-Apr-14 18:30N 37°56' E 023°41'0 0.0
2018-Apr-14 18:00N 37°56' E 023°41'0 0.0
2018-Apr-14 17:30N 37°56' E 023°41'0 0.0
2018-Apr-14 16:59N 37°56' E 023°41'0 0.0
2018-Apr-14 16:30N 37°56' E 023°41'3 5.7
2018-Apr-14 16:01N 37°55' E 023°38'714.6
2018-Apr-14 15:31N 37°50' E 023°31'713.5
2018-Apr-14 15:00N 37°45' E 023°25'0 0.3
2018-Apr-14 13:58N 37°45' E 023°26'0 0.0
2018-Apr-14 13:20N 37°45' E 023°26'0 0.0
2018-Apr-14 13:00N 37°45' E 023°26'611.9
2018-Apr-14 12:30N 37°39' E 023°25'13 6.2
2018-Apr-14 10:27N 37°27' E 023°32'2 0.5
2018-Apr-14 07:24N 37°26' E 023°32'1314.5
2018-Apr-14 06:29N 37°39' E 023°37'714.3
2018-Apr-14 06:00N 37°45' E 023°39'714.4
2018-Apr-14 05:30N 37°53' E 023°40'4 2.0
2018-Apr-14 03:37N 37°56' E 023°41'0 0.0
2018-Apr-14 03:12N 37°56' E 023°41'0 0.0
2018-Apr-14 02:52N 37°56' E 023°41'0 0.0
2018-Apr-14 01:23N 37°56' E 023°41'0 0.0
2018-Apr-14 00:57N 37°56' E 023°41'0 0.0
2018-Apr-14 00:23N 37°56' E 023°41'0 0.0
2018-Apr-13 23:59N 37°56' E 023°41'0 0.0
2018-Apr-13 23:28N 37°56' E 023°41'0 0.0
2018-Apr-13 22:58N 37°56' E 023°41'0 0.0
2018-Apr-13 22:19N 37°56' E 023°41'0 0.0
2018-Apr-13 22:00N 37°56' E 023°41'0 0.0
2018-Apr-13 21:27N 37°56' E 023°41'0 0.0
2018-Apr-13 20:58N 37°56' E 023°41'0 0.0
2018-Apr-13 20:30N 37°56' E 023°41'0 0.0
2018-Apr-13 19:55N 37°56' E 023°41'0 0.0
2018-Apr-13 19:19N 37°56' E 023°41'0 0.0
2018-Apr-13 19:00N 37°56' E 023°41'0 0.0
2018-Apr-13 18:27N 37°56' E 023°41'0 0.0
2018-Apr-13 18:00N 37°56' E 023°41'0 0.0
2018-Apr-13 17:30N 37°56' E 023°41'0 0.0
2018-Apr-13 16:58N 37°56' E 023°41'0 0.0
2018-Apr-13 16:29N 37°56' E 023°41'5 9.8
2018-Apr-13 16:00N 37°53' E 023°36'714.4
2018-Apr-13 15:30N 37°49' E 023°29'510.0
2018-Apr-13 15:00N 37°45' E 023°26'0 0.0
2018-Apr-13 14:30N 37°45' E 023°26'0 0.0
2018-Apr-13 14:01N 37°45' E 023°26'  

Dump ship's entire track history